Saturday, December 20, 2014, 10:16 PM EST

KIPT, Williamsport-lycoming County

Location: Montoursville, PA, United States Lat: 41.25
Local Time: 10:16 PM EST ( 3:16 GMT) Lon: -76.917
Time Zone: US/Eastern Elev: 528 ft

Show me the last for .
Show Decoded

2014-12-20 21:54 METAR KIPT 210254Z 26003KT 10SM OVC032 M01/M06 A3028 RMK AO2 SLP259 T10061061
                 53001 =
2014-12-20 20:54 METAR KIPT 210154Z 00000KT 10SM OVC031 00/M07 A3025 RMK AO2 SLP251 T00001067 =
2014-12-20 19:54 METAR KIPT 210054Z 00000KT 10SM OVC031 00/M07 A3026 RMK AO2 SLP254 T00001067 =
2014-12-20 18:54 METAR KIPT 202354Z 26003KT 10SM OVC033 00/M06 A3028 RMK AO2 SLP258 T00001061
                 10011 21006 53013 =
2014-12-20 17:54 METAR KIPT 202254Z 00000KT 10SM OVC033 00/M07 A3025 RMK AO2 SLP251 T00001067 =
2014-12-20 16:54 METAR KIPT 202154Z 24003KT 10SM OVC032 00/M07 A3026 RMK AO2 SLP252 T00001067 =
2014-12-20 15:54 METAR KIPT 202054Z 00000KT 10SM OVC032 01/M07 A3024 RMK AO2 SLP246 T00061067
                 55000 =
2014-12-20 14:54 METAR KIPT 201954Z 24003KT 10SM OVC031 01/M07 A3023 RMK AO2 SLP243 T00061067 =
2014-12-20 13:54 METAR KIPT 201854Z 27003KT 10SM OVC030 01/M07 A3023 RMK AO2 SLP244 T00061067 =
2014-12-20 13:33 METAR KIPT 201833Z 25005KT 10SM OVC030 01/M07 A3023 RMK AO2 T00061067 =
2014-12-20 12:54 METAR KIPT 201754Z 30005KT 10SM OVC029 01/M07 A3024 RMK AO2 SLP246 T00061067
                 10006 21011 56021 =
2014-12-20 11:54 METAR KIPT 201654Z 01004KT 10SM OVC027 01/M07 A3025 RMK AO2 SLP250 T00061067 =
2014-12-20 10:54 METAR KIPT 201554Z 33004KT 10SM OVC027 00/M07 A3028 RMK AO2 SLP260 T00001067 =
2014-12-20 09:54 METAR KIPT 201454Z 31003KT 10SM OVC027 00/M07 A3030 RMK AO2 SLP267 T00001067
                 53016 =
2014-12-20 08:54 METAR KIPT 201354Z 34005KT 10SM OVC027 M01/M07 A3028 RMK AO2 SLP260 T10061072 =
2014-12-20 07:54 METAR KIPT 201254Z 29004KT 10SM OVC028 M01/M07 A3026 RMK AO2 SLP251 T10061067 =
2014-12-20 07:08 METAR KIPT 201208Z 25004KT 10SM OVC029 M01/M07 A3026 RMK AO2 T10111067 =
2014-12-20 06:54 METAR KIPT 201154Z 26004KT 10SM OVC030 M01/M07 A3025 RMK AO2 SLP251 T10111067
                 11006 21011 50007 =
2014-12-20 05:54 METAR KIPT 201054Z AUTO 27004KT 10SM OVC030 M01/M07 A3026 RMK AO2 SLP252
                 T10111067 =
2014-12-20 04:54 METAR KIPT 200954Z AUTO 27006KT 10SM OVC030 M01/M07 A3025 RMK AO2 SLP248
                 T10061067 =
2014-12-20 04:45 METAR KIPT 200945Z AUTO 27005KT 10SM OVC030 M01/M07 A3024 RMK AO2 T10061072 =
2014-12-20 03:54 METAR KIPT 200854Z AUTO 27005KT 10SM OVC029 M01/M07 A3023 RMK AO2 SLP244
                 T10061072 53009 =
2014-12-20 02:54 METAR KIPT 200754Z AUTO 33003KT 10SM OVC029 M01/M07 A3022 RMK AO2 SLP239
                 T10061072 =
2014-12-20 01:54 METAR KIPT 200654Z AUTO 32005KT 10SM OVC029 M01/M08 A3021 RMK AO2 SLP235
                 T10111078 =
2014-12-20 01:50 METAR KIPT 200650Z AUTO 33004KT 10SM OVC029 M01/M08 A3021 =
2014-12-20 00:54 METAR KIPT 200554Z AUTO 32007KT 10SM OVC031 M01/M08 A3022 RMK AO2 SLP237
                 T10111083 10006 21011 58002 =
2014-12-19 23:54 METAR KIPT 200454Z AUTO 33011KT 10SM OVC032 M01/M08 A3022 RMK AO2 SLP240
                 T10061078 400331006 =
2014-12-19 22:54 METAR KIPT 200354Z AUTO 29006KT 10SM OVC040 00/M08 A3023 RMK AO2 SLP243
                 T00001078 =

Support USWX by starting your Amazon purchase here.